Time;durP1;ratioP1;P1;durP2;ratioP2;P2;SDS_P1;SDS_P2;PMS_P1;PMS_P2;Temp;Humidity;BMP_temperature;BMP_pressure;BME280_temperature;BME280_humidity;BME280_pressure;Samples;Min_cycle;Max_cycle;Signal;HPM_P1;HPM_P2
2022/07/06 00:01:44;;;;;;;1.85;0.90;;;21.30;62.90;;;;;;5061279;28;20033;-78
2022/07/06 00:04:09;;;;;;;2.20;0.47;;;21.30;63.50;;;;;;5067814;28;20525;-79
2022/07/06 00:06:35;;;;;;;1.48;0.50;;;21.20;63.00;;;;;;5049994;28;20052;-79
2022/07/06 00:09:01;;;;;;;0.75;0.63;;;21.10;62.40;;;;;;5067793;28;20040;-79
2022/07/06 00:11:26;;;;;;;0.75;0.50;;;21.00;62.40;;;;;;5077365;28;20401;-78
2022/07/06 00:13:52;;;;;;;0.70;0.40;;;21.10;62.20;;;;;;5076670;28;20372;-80
2022/07/06 00:16:18;;;;;;;1.38;0.40;;;21.00;62.30;;;;;;5041526;28;20036;-79
2022/07/06 00:18:44;;;;;;;2.55;0.55;;;21.00;62.20;;;;;;5071006;28;20111;-78
2022/07/06 00:21:10;;;;;;;0.52;0.40;;;21.00;62.70;;;;;;5061860;28;20449;-79
2022/07/06 00:23:35;;;;;;;1.15;0.50;;;21.00;62.50;;;;;;5082073;28;20539;-79
2022/07/06 00:26:01;;;;;;;3.03;0.90;;;20.90;62.50;;;;;;5065031;28;20198;-78
2022/07/06 00:28:27;;;;;;;0.70;0.30;;;20.90;61.80;;;;;;5070026;28;20036;-80
2022/07/06 00:30:53;;;;;;;6.10;0.40;;;20.80;62.00;;;;;;5049518;28;20032;-78
2022/07/06 00:33:19;;;;;;;0.63;0.30;;;20.70;62.20;;;;;;5067199;28;20028;-82
2022/07/06 00:35:44;;;;;;;1.48;0.47;;;20.60;62.30;;;;;;5065583;28;20106;-80
2022/07/06 00:38:10;;;;;;;2.08;0.45;;;20.60;62.70;;;;;;5082858;28;20555;-78
2022/07/06 00:40:35;;;;;;;1.40;0.70;;;20.60;62.40;;;;;;5050223;28;20041;-79
2022/07/06 00:43:01;;;;;;;0.50;0.45;;;20.60;62.70;;;;;;5042492;28;20477;-79
2022/07/06 00:45:26;;;;;;;1.05;0.40;;;20.50;63.10;;;;;;5065616;28;20042;-78
2022/07/06 00:47:52;;;;;;;2.22;0.40;;;20.50;63.10;;;;;;5054367;28;20400;-79
2022/07/06 00:50:20;;;;;;;1.08;0.68;;;20.50;63.20;;;;;;5068447;28;20085;-79
2022/07/06 00:52:54;;;;;;;5.25;0.40;;;20.50;63.50;;;;;;5068916;28;20478;-78
2022/07/06 00:55:25;;;;;;;1.65;0.50;;;20.40;63.60;;;;;;5070382;28;20028;-77
2022/07/06 00:57:51;;;;;;;1.10;0.50;;;20.40;64.00;;;;;;5071289;28;20128;-79
2022/07/06 01:00:19;;;;;;;1.58;0.30;;;20.30;64.00;;;;;;5059859;28;20366;-79
2022/07/06 01:02:45;;;;;;;2.15;0.40;;;20.20;64.70;;;;;;5050040;28;20048;-82
2022/07/06 01:05:13;;;;;;;1.48;0.70;;;20.20;64.90;;;;;;5047679;28;20025;-78
2022/07/06 01:07:44;;;;;;;3.03;0.47;;;20.10;64.90;;;;;;5038917;28;20032;-81
2022/07/06 01:10:12;;;;;;;6.15;0.73;;;20.00;66.00;;;;;;5061419;28;20274;-80
2022/07/06 01:12:40;;;;;;;0.90;0.57;;;19.90;66.10;;;;;;5048457;28;20056;-78
2022/07/06 01:15:09;;;;;;;1.38;0.70;;;19.80;66.40;;;;;;5062313;28;20017;-80
2022/07/06 01:17:35;;;;;;;2.30;0.50;;;19.80;66.40;;;;;;5073992;28;20032;-80
2022/07/06 01:20:21;;;;;;;0.80;0.68;;;19.70;67.10;;;;;;5070320;28;20036;-78
2022/07/06 01:22:50;;;;;;;1.77;0.77;;;19.50;67.60;;;;;;5042189;28;20094;-78
2022/07/06 01:25:15;;;;;;;3.65;0.45;;;19.50;67.70;;;;;;5049389;28;20033;-78
2022/07/06 01:27:42;;;;;;;0.93;0.40;;;19.50;68.00;;;;;;5066256;28;20033;-78
2022/07/06 01:30:10;;;;;;;1.35;0.60;;;19.40;68.10;;;;;;5065829;28;20125;-78
2022/07/06 01:32:36;;;;;;;5.97;0.82;;;19.40;68.50;;;;;;5067679;28;20235;-78
2022/07/06 01:35:03;;;;;;;7.28;0.75;;;19.30;68.70;;;;;;5071125;28;20036;-77
2022/07/06 01:37:28;;;;;;;3.53;0.70;;;19.20;69.30;;;;;;5069133;28;20138;-80
2022/07/06 01:39:57;;;;;;;2.90;0.60;;;19.20;70.10;;;;;;5054556;28;20048;-80
2022/07/06 01:42:22;;;;;;;5.78;0.52;;;19.10;70.40;;;;;;5045554;28;20050;-77
2022/07/06 01:44:48;;;;;;;1.40;0.65;;;19.10;70.40;;;;;;5066224;28;20661;-77
2022/07/06 01:47:13;;;;;;;2.95;0.73;;;18.90;71.30;;;;;;5057307;28;20040;-81
2022/07/06 01:49:39;;;;;;;1.55;0.70;;;18.80;72.00;;;;;;5068550;28;20040;-78
2022/07/06 01:52:04;;;;;;;2.05;0.70;;;18.80;72.30;;;;;;5059184;28;20024;-78
2022/07/06 01:54:30;;;;;;;2.90;0.82;;;18.70;72.60;;;;;;5069939;28;20536;-78
2022/07/06 01:56:55;;;;;;;1.85;0.90;;;18.50;73.80;;;;;;5066319;28;20021;-78
2022/07/06 01:59:21;;;;;;;2.33;0.80;;;18.40;74.30;;;;;;5056864;28;20075;-80
2022/07/06 02:01:46;;;;;;;4.40;0.70;;;18.20;75.00;;;;;;5059514;28;20037;-78
2022/07/06 02:04:12;;;;;;;1.67;1.00;;;18.20;75.50;;;;;;5077147;28;20031;-78
2022/07/06 02:06:37;;;;;;;1.65;0.75;;;18.10;75.60;;;;;;5057248;28;20032;-78
2022/07/06 02:09:03;;;;;;;2.55;0.55;;;18.10;76.00;;;;;;5068692;28;20529;-80
2022/07/06 02:11:28;;;;;;;2.88;0.82;;;18.00;75.80;;;;;;5040659;28;20032;-78
2022/07/06 02:13:54;;;;;;;6.85;1.10;;;18.00;76.30;;;;;;5070448;28;20040;-78
2022/07/06 02:16:19;;;;;;;5.43;1.20;;;17.90;76.60;;;;;;5063887;28;20043;-78
2022/07/06 02:18:45;;;;;;;3.28;1.05;;;17.70;77.20;;;;;;5077715;28;20033;-80
2022/07/06 02:21:10;;;;;;;1.00;0.60;;;17.60;77.10;;;;;;5076102;28;20029;-77
2022/07/06 02:23:36;;;;;;;1.88;0.93;;;17.70;77.30;;;;;;5061909;28;20037;-78
2022/07/06 02:26:01;;;;;;;2.33;0.77;;;17.70;77.70;;;;;;5063680;28;20028;-78
2022/07/06 02:28:27;;;;;;;2.20;0.75;;;17.70;77.50;;;;;;5067070;28;20111;-78
2022/07/06 02:30:52;;;;;;;1.42;0.90;;;17.60;78.10;;;;;;5050227;28;20029;-80
2022/07/06 02:33:18;;;;;;;4.65;1.02;;;17.60;77.90;;;;;;5042218;28;20056;-81
2022/07/06 02:35:43;;;;;;;1.15;0.82;;;17.60;78.00;;;;;;5071063;28;20035;-78
2022/07/06 02:38:09;;;;;;;3.03;1.13;;;17.50;78.50;;;;;;5066330;28;20094;-79
2022/07/06 02:40:35;;;;;;;1.42;1.00;;;17.40;79.20;;;;;;5062886;28;20040;-79
2022/07/06 02:43:01;;;;;;;3.25;1.00;;;17.40;79.50;;;;;;5051497;28;20024;-80
2022/07/06 02:45:26;;;;;;;3.00;0.90;;;17.30;79.60;;;;;;5048209;28;20436;-80
2022/07/06 02:47:55;;;;;;;3.17;1.58;;;17.30;80.00;;;;;;5067468;28;20039;-79
2022/07/06 02:50:20;;;;;;;2.05;0.90;;;17.40;79.90;;;;;;5064661;28;20558;-81
2022/07/06 02:52:46;;;;;;;4.05;0.90;;;17.40;80.00;;;;;;5063174;28;20112;-78
2022/07/06 02:55:11;;;;;;;1.70;0.82;;;17.40;80.30;;;;;;5058544;28;20737;-78
2022/07/06 02:57:37;;;;;;;5.28;0.70;;;17.40;80.50;;;;;;5065677;28;20028;-77
2022/07/06 03:00:04;;;;;;;1.85;1.00;;;17.30;81.00;;;;;;5067112;28;20087;-77
2022/07/06 03:02:29;;;;;;;2.78;1.00;;;17.30;81.20;;;;;;5076693;28;20048;-78
2022/07/06 03:04:56;;;;;;;1.48;0.88;;;17.30;81.40;;;;;;5043163;28;20074;-80
2022/07/06 03:07:22;;;;;;;2.35;0.70;;;17.30;81.70;;;;;;5043140;28;20057;-77
2022/07/06 03:09:47;;;;;;;2.05;0.80;;;17.10;82.90;;;;;;5047327;28;20063;-78
2022/07/06 03:12:13;;;;;;;1.80;1.00;;;17.10;83.20;;;;;;5052657;28;20111;-80
2022/07/06 03:14:38;;;;;;;2.90;0.90;;;17.10;83.40;;;;;;5058695;28;20115;-78
2022/07/06 03:17:03;;;;;;;1.15;0.70;;;17.00;84.00;;;;;;5050537;28;20090;-78
2022/07/06 03:19:29;;;;;;;2.25;0.82;;;17.00;84.50;;;;;;5071606;28;20040;-77
2022/07/06 03:21:54;;;;;;;2.03;0.60;;;17.00;84.90;;;;;;5045825;28;20411;-81
2022/07/06 03:24:20;;;;;;;3.28;0.80;;;17.00;85.90;;;;;;5066402;28;20032;-78
2022/07/06 03:26:45;;;;;;;1.10;0.73;;;16.90;86.70;;;;;;5061860;28;20036;-78
2022/07/06 03:29:11;;;;;;;3.22;1.42;;;16.80;87.30;;;;;;5046290;28;20029;-77
2022/07/06 03:31:36;;;;;;;3.28;1.20;;;16.70;88.10;;;;;;5061230;28;20085;-78
2022/07/06 03:34:02;;;;;;;4.00;1.08;;;16.80;88.60;;;;;;5068087;28;20490;-79
2022/07/06 03:36:27;;;;;;;2.45;0.90;;;16.80;88.90;;;;;;5064419;28;20033;-78
2022/07/06 03:38:53;;;;;;;2.50;0.73;;;16.80;89.60;;;;;;5065735;28;20029;-77
2022/07/06 03:41:18;;;;;;;1.25;0.73;;;16.80;90.00;;;;;;5051549;28;20040;-77
2022/07/06 03:43:44;;;;;;;2.40;0.77;;;16.80;89.90;;;;;;5049872;28;20097;-77
2022/07/06 03:46:09;;;;;;;6.25;0.90;;;16.80;90.20;;;;;;5063020;28;20055;-77
2022/07/06 03:48:35;;;;;;;1.30;0.70;;;16.90;90.10;;;;;;5061948;28;20052;-78
2022/07/06 03:51:00;;;;;;;6.35;0.80;;;16.90;90.20;;;;;;5064261;28;20098;-77
2022/07/06 03:53:26;;;;;;;4.13;1.00;;;16.90;90.30;;;;;;5047953;28;20032;-79
2022/07/06 03:58:36;;;;;;;2.28;0.90;;;17.00;90.30;;;;;;5070757;28;20517;-78
2022/07/06 04:01:01;;;;;;;1.25;0.60;;;17.00;90.70;;;;;;5047512;28;20036;-77
2022/07/06 04:03:27;;;;;;;4.03;0.85;;;17.10;90.40;;;;;;5051851;28;20054;-80
2022/07/06 04:05:53;;;;;;;0.90;0.50;;;17.20;90.30;;;;;;5053237;28;20021;-77
2022/07/06 04:08:19;;;;;;;3.22;0.70;;;17.20;90.20;;;;;;5087138;28;20035;-78
2022/07/06 04:10:45;;;;;;;2.35;0.82;;;17.20;90.40;;;;;;5057159;28;20116;-77
2022/07/06 04:13:10;;;;;;;1.85;0.70;;;17.20;90.30;;;;;;5057488;28;20112;-79
2022/07/06 04:15:36;;;;;;;2.95;0.82;;;17.20;90.40;;;;;;5039847;28;20190;-78
2022/07/06 04:18:01;;;;;;;1.05;0.75;;;17.20;90.50;;;;;;5039504;28;20398;-77
2022/07/06 04:20:27;;;;;;;1.23;0.70;;;17.20;90.30;;;;;;5056024;28;20040;-76
2022/07/06 04:22:53;;;;;;;1.52;0.60;;;17.20;90.40;;;;;;5067057;28;20028;-77
2022/07/06 04:25:19;;;;;;;1.92;0.63;;;17.30;90.30;;;;;;5068957;28;20028;-78
2022/07/06 04:27:45;;;;;;;3.85;0.98;;;17.30;90.30;;;;;;5057250;28;20189;-78
2022/07/06 04:30:11;;;;;;;2.28;0.65;;;17.40;90.20;;;;;;5036636;28;20033;-79
2022/07/06 04:32:37;;;;;;;3.33;0.70;;;17.30;90.30;;;;;;5057514;28;20032;-78
2022/07/06 04:35:04;;;;;;;10.00;1.20;;;17.40;90.40;;;;;;5040801;28;20064;-77
2022/07/06 04:37:29;;;;;;;5.40;1.58;;;17.40;90.40;;;;;;5055764;28;20071;-79
2022/07/06 04:39:54;;;;;;;2.92;0.75;;;17.30;90.30;;;;;;5057235;28;20064;-78
2022/07/06 04:42:20;;;;;;;5.88;0.60;;;17.40;90.30;;;;;;5057156;28;20041;-78
2022/07/06 04:44:45;;;;;;;5.45;0.65;;;17.40;90.30;;;;;;5055742;28;20032;-78
2022/07/06 04:47:12;;;;;;;4.03;0.77;;;17.40;90.50;;;;;;5043369;28;20142;-78
2022/07/06 04:49:38;;;;;;;2.20;0.70;;;17.40;90.60;;;;;;5076581;28;20037;-78
2022/07/06 04:52:04;;;;;;;1.25;0.60;;;17.40;90.50;;;;;;5048378;28;20028;-80
2022/07/06 04:54:29;;;;;;;1.25;0.90;;;17.40;90.90;;;;;;5057666;28;20135;-78
2022/07/06 04:56:56;;;;;;;1.73;0.82;;;17.50;90.70;;;;;;5037129;28;20115;-80
2022/07/06 04:59:22;;;;;;;5.65;0.70;;;17.60;90.60;;;;;;5068558;28;20039;-78
2022/07/06 05:01:47;;;;;;;3.53;1.70;;;17.60;90.30;;;;;;5066411;28;20045;-78
2022/07/06 05:04:13;;;;;;;4.05;0.75;;;17.70;90.40;;;;;;5053779;28;20056;-79
2022/07/06 05:06:39;;;;;;;2.55;0.88;;;17.70;90.40;;;;;;5048890;28;20379;-78
2022/07/06 05:09:05;;;;;;;0.95;0.60;;;17.60;90.40;;;;;;5041784;28;20032;-78
2022/07/06 05:11:31;;;;;;;1.85;0.60;;;17.50;90.20;;;;;;5063275;28;20052;-78
2022/07/06 05:13:57;;;;;;;1.88;0.75;;;17.50;90.50;;;;;;5061991;28;20464;-77
2022/07/06 05:16:22;;;;;;;2.47;0.60;;;17.50;90.40;;;;;;5048786;28;20276;-77
2022/07/06 05:18:48;;;;;;;1.40;0.63;;;17.50;90.30;;;;;;5049410;28;20055;-77
2022/07/06 05:21:13;;;;;;;2.58;0.85;;;17.50;90.50;;;;;;5047511;28;20025;-79
2022/07/06 05:23:39;;;;;;;2.13;0.80;;;17.60;90.40;;;;;;5071308;28;20131;-77
2022/07/06 05:26:05;;;;;;;1.52;0.50;;;17.40;90.50;;;;;;5062403;28;20066;-77
2022/07/06 05:28:30;;;;;;;2.33;0.52;;;17.40;90.40;;;;;;5071456;28;20072;-78
2022/07/06 05:30:56;;;;;;;2.80;0.95;;;17.40;90.30;;;;;;5067420;28;20028;-78
2022/07/06 05:33:21;;;;;;;8.82;1.88;;;17.50;90.10;;;;;;5083106;28;20060;-79
2022/07/06 05:35:47;;;;;;;2.28;0.88;;;17.60;88.90;;;;;;5047263;28;20028;-76
2022/07/06 05:38:13;;;;;;;2.67;0.50;;;17.60;89.30;;;;;;5070469;28;20435;-77
2022/07/06 05:40:38;;;;;;;3.78;0.82;;;17.80;88.90;;;;;;5064918;28;20543;-79
2022/07/06 05:43:04;;;;;;;3.53;0.68;;;18.00;88.10;;;;;;5050366;28;20111;-77
2022/07/06 05:45:30;;;;;;;2.13;0.45;;;18.00;87.30;;;;;;5076946;28;20135;-80
2022/07/06 05:50:40;;;;;;;5.18;0.80;;;18.00;86.50;;;;;;5070279;28;20456;-79
2022/07/06 05:53:06;;;;;;;1.20;0.50;;;17.90;87.00;;;;;;5091556;28;20040;-79
2022/07/06 05:55:32;;;;;;;4.00;0.52;;;17.80;86.90;;;;;;5069335;28;20071;-83
2022/07/06 05:57:58;;;;;;;0.77;0.40;;;17.90;87.20;;;;;;5056720;28;20025;-79
2022/07/06 06:00:25;;;;;;;4.72;0.90;;;18.00;86.30;;;;;;5052912;28;20035;-78
2022/07/06 06:02:51;;;;;;;2.95;0.57;;;18.00;86.40;;;;;;5068368;28;20055;-80
2022/07/06 06:05:17;;;;;;;2.72;0.68;;;17.90;86.60;;;;;;5068296;28;20064;-80
2022/07/06 06:07:44;;;;;;;2.30;0.47;;;17.90;86.40;;;;;;5050732;28;20401;-80
2022/07/06 06:10:11;;;;;;;2.30;0.50;;;18.00;86.10;;;;;;5054273;28;20433;-80
2022/07/06 06:12:37;;;;;;;1.58;0.70;;;18.00;85.70;;;;;;5054476;28;20040;-80
2022/07/06 06:15:04;;;;;;;0.70;0.35;;;18.20;85.70;;;;;;5059548;28;20032;-83
2022/07/06 06:17:29;;;;;;;1.48;1.00;;;18.30;85.60;;;;;;5059168;28;20059;-80
2022/07/06 06:19:55;;;;;;;3.08;0.70;;;18.40;84.00;;;;;;5060654;28;20032;-81
2022/07/06 06:22:21;;;;;;;2.38;0.50;;;18.50;82.50;;;;;;5059675;28;20063;-80
2022/07/06 06:24:46;;;;;;;1.58;0.82;;;18.60;81.60;;;;;;5076933;28;20111;-81
2022/07/06 06:27:12;;;;;;;1.70;0.47;;;18.80;82.30;;;;;;5080191;28;20149;-83
2022/07/06 06:29:38;;;;;;;2.33;0.40;;;18.90;82.40;;;;;;5056023;28;20036;-80
2022/07/06 06:32:05;;;;;;;1.42;0.50;;;19.00;82.20;;;;;;5067016;28;20506;-78
2022/07/06 06:34:31;;;;;;;4.22;0.55;;;19.10;81.80;;;;;;5049451;28;20050;-78
2022/07/06 06:36:56;;;;;;;2.40;0.65;;;19.20;80.90;;;;;;5086717;28;20028;-77
2022/07/06 06:39:22;;;;;;;1.92;0.60;;;19.30;79.60;;;;;;5077759;28;20508;-78
2022/07/06 06:41:47;;;;;;;4.10;0.80;;;19.30;80.30;;;;;;5058277;28;20044;-80
2022/07/06 06:44:14;;;;;;;1.23;0.40;;;19.40;79.80;;;;;;5057882;28;20460;-81
2022/07/06 06:46:40;;;;;;;3.30;0.70;;;19.50;78.30;;;;;;5057077;28;20813;-79
2022/07/06 06:49:05;;;;;;;4.03;0.52;;;19.40;78.70;;;;;;5057158;28;20036;-79
2022/07/06 06:51:31;;;;;;;1.05;0.40;;;19.40;78.90;;;;;;5058245;28;20057;-80
2022/07/06 06:53:56;;;;;;;1.58;0.50;;;19.30;79.20;;;;;;5058066;28;20081;-81
2022/07/06 06:56:22;;;;;;;2.53;0.73;;;19.30;79.90;;;;;;5077561;28;20038;-81
2022/07/06 06:58:47;;;;;;;0.63;0.30;;;19.50;79.20;;;;;;5076070;28;20047;-80
2022/07/06 07:01:13;;;;;;;0.75;0.50;;;19.60;78.30;;;;;;5074652;28;20055;-80
2022/07/06 07:03:38;;;;;;;2.72;0.57;;;19.70;76.80;;;;;;5056850;28;20055;-80
2022/07/06 07:06:04;;;;;;;3.78;0.80;;;19.70;76.30;;;;;;5074163;28;20044;-79
2022/07/06 07:08:29;;;;;;;2.78;0.60;;;19.80;76.40;;;;;;5096176;28;20052;-79
2022/07/06 07:10:55;;;;;;;3.00;0.50;;;19.70;75.80;;;;;;5071961;28;20064;-80
2022/07/06 07:13:20;;;;;;;2.13;0.55;;;19.80;77.00;;;;;;5058354;28;20017;-80
2022/07/06 07:15:46;;;;;;;1.55;0.55;;;19.70;74.40;;;;;;5056045;28;20048;-80
2022/07/06 07:18:11;;;;;;;2.72;0.63;;;19.70;74.60;;;;;;5060407;28;20391;-80
2022/07/06 07:20:37;;;;;;;3.47;0.80;;;19.70;74.90;;;;;;5076027;28;20047;-83
2022/07/06 07:23:02;;;;;;;1.95;0.47;;;19.70;74.80;;;;;;5071990;28;20029;-79
2022/07/06 07:25:28;;;;;;;2.97;0.60;;;19.70;75.70;;;;;;5058811;28;20028;-80
2022/07/06 07:27:54;;;;;;;4.55;0.77;;;19.70;75.60;;;;;;5072051;28;20055;-81
2022/07/06 07:30:20;;;;;;;2.67;0.63;;;19.90;74.20;;;;;;5049209;28;20081;-80
2022/07/06 07:32:45;;;;;;;1.55;0.55;;;20.00;73.60;;;;;;5050469;28;20055;-78
2022/07/06 07:35:11;;;;;;;0.75;0.50;;;20.00;73.50;;;;;;5071418;28;20047;-77
2022/07/06 07:37:36;;;;;;;1.58;0.40;;;19.90;74.30;;;;;;5051005;28;20071;-81
2022/07/06 07:40:04;;;;;;;1.85;0.55;;;19.90;75.10;;;;;;5070715;28;20040;-73
2022/07/06 07:42:29;;;;;;;1.73;0.57;;;19.80;74.90;;;;;;5069493;28;20683;-75
2022/07/06 07:44:55;;;;;;;1.60;0.45;;;20.00;74.50;;;;;;5069787;28;20040;-73
2022/07/06 07:47:20;;;;;;;3.03;0.70;;;20.10;74.40;;;;;;5069686;28;20032;-80
2022/07/06 07:49:46;;;;;;;1.95;0.40;;;20.20;72.20;;;;;;5052744;28;20036;-76
2022/07/06 07:52:11;;;;;;;1.42;0.50;;;20.30;71.40;;;;;;5070996;28;20050;-77
2022/07/06 07:54:37;;;;;;;3.78;0.50;;;20.40;72.30;;;;;;5051301;28;20028;-78
2022/07/06 07:57:03;;;;;;;3.20;0.50;;;20.40;71.70;;;;;;5051061;28;20033;-76
2022/07/06 07:59:29;;;;;;;2.80;0.55;;;20.40;73.20;;;;;;5070277;28;20036;-76
2022/07/06 08:01:54;;;;;;;1.67;0.90;;;20.60;72.50;;;;;;5067370;28;20166;-76
2022/07/06 08:04:20;;;;;;;3.85;0.63;;;20.60;73.60;;;;;;5052111;28;20032;-76
2022/07/06 08:06:46;;;;;;;4.05;0.70;;;20.80;72.60;;;;;;5069247;28;20029;-76
2022/07/06 08:09:12;;;;;;;4.15;0.60;;;20.90;74.00;;;;;;5052205;28;20033;-77
2022/07/06 08:11:37;;;;;;;2.40;0.60;;;20.90;72.30;;;;;;5069398;28;20071;-77
2022/07/06 08:14:04;;;;;;;2.35;0.63;;;20.90;72.70;;;;;;5069531;28;20029;-77
2022/07/06 08:16:30;;;;;;;4.15;0.82;;;20.90;72.10;;;;;;5069668;28;20457;-77
2022/07/06 08:18:55;;;;;;;1.85;0.43;;;20.90;72.50;;;;;;5069360;28;20248;-77
2022/07/06 08:21:21;;;;;;;2.38;0.45;;;21.00;72.60;;;;;;5051173;28;20111;-75
2022/07/06 08:23:47;;;;;;;1.95;0.50;;;21.00;72.30;;;;;;5070319;28;20033;-77
2022/07/06 08:26:12;;;;;;;2.15;0.47;;;21.00;70.50;;;;;;5051168;28;20107;-75
2022/07/06 08:28:38;;;;;;;1.45;0.50;;;20.90;70.30;;;;;;5051314;28;20036;-77
2022/07/06 08:31:03;;;;;;;1.05;0.40;;;20.90;68.20;;;;;;5068396;28;20039;-77
2022/07/06 08:33:29;;;;;;;1.95;0.45;;;21.00;69.40;;;;;;5069874;28;20125;-75
2022/07/06 08:35:54;;;;;;;1.48;0.50;;;21.00;68.10;;;;;;5069341;28;20033;-77
2022/07/06 08:38:20;;;;;;;3.28;0.50;;;21.00;68.30;;;;;;5051325;28;20707;-75
2022/07/06 08:40:51;;;;;;;4.97;0.60;;;21.00;69.20;;;;;;5054601;28;20396;-77
2022/07/06 08:43:16;;;;;;;2.65;0.63;;;21.20;68.80;;;;;;5071915;28;20454;-76
2022/07/06 08:45:45;;;;;;;1.52;0.40;;;21.20;68.30;;;;;;5053443;28;20029;-74
2022/07/06 08:48:11;;;;;;;2.08;0.40;;;21.20;67.90;;;;;;5064925;28;20052;-76
2022/07/06 08:50:37;;;;;;;1.13;0.43;;;21.20;67.80;;;;;;5073631;28;20044;-75
2022/07/06 08:53:04;;;;;;;2.95;0.55;;;21.30;66.90;;;;;;5069989;28;20032;-76
2022/07/06 08:55:29;;;;;;;2.70;0.30;;;21.30;67.10;;;;;;5055120;28;20047;-76
2022/07/06 08:57:56;;;;;;;3.17;0.43;;;21.50;66.60;;;;;;5056315;28;20522;-77
2022/07/06 09:00:24;;;;;;;2.15;0.77;;;21.70;66.20;;;;;;5068316;28;20398;-76
2022/07/06 09:02:50;;;;;;;1.85;0.85;;;21.90;63.90;;;;;;5060133;28;20024;-77
2022/07/06 09:05:17;;;;;;;4.47;0.40;;;21.90;65.00;;;;;;5040592;28;20026;-76
2022/07/06 09:07:48;;;;;;;4.55;0.68;;;21.90;64.50;;;;;;5048826;28;20028;-78
2022/07/06 09:10:13;;;;;;;2.03;0.50;;;22.00;65.10;;;;;;5067771;28;20036;-76
2022/07/06 09:12:39;;;;;;;1.80;0.40;;;22.10;65.80;;;;;;5047775;28;20311;-76
2022/07/06 09:15:05;;;;;;;7.90;0.52;;;22.10;64.80;;;;;;5051816;28;20033;-78
2022/07/06 09:17:30;;;;;;;2.13;0.45;;;22.20;64.80;;;;;;5061786;28;20020;-77
2022/07/06 09:19:56;;;;;;;1.70;0.50;;;22.10;63.70;;;;;;5080413;28;20110;-77
2022/07/06 09:22:27;;;;;;;1.55;0.35;;;21.90;64.50;;;;;;5089836;28;20032;-75
2022/07/06 09:24:52;;;;;;;1.60;0.47;;;21.60;63.50;;;;;;5069021;28;20491;-77
2022/07/06 09:27:18;;;;;;;1.70;0.40;;;21.50;64.00;;;;;;5068235;28;20082;-77
2022/07/06 09:29:45;;;;;;;1.08;0.57;;;21.60;64.40;;;;;;5069909;28;20047;-77
2022/07/06 09:32:10;;;;;;;1.73;0.40;;;21.70;64.80;;;;;;5076335;28;20032;-76
2022/07/06 09:34:44;;;;;;;1.95;0.50;;;21.90;63.80;;;;;;5050779;28;20777;-77
2022/07/06 09:37:11;;;;;;;1.48;0.43;;;22.10;64.30;;;;;;5068162;28;20024;-76
2022/07/06 09:39:37;;;;;;;1.80;0.43;;;22.40;62.60;;;;;;5069040;28;20072;-76
2022/07/06 09:42:04;;;;;;;3.38;0.55;;;22.50;60.90;;;;;;5068827;28;20043;-76
2022/07/06 09:44:32;;;;;;;1.27;0.32;;;22.40;60.90;;;;;;5050092;28;20028;-77
2022/07/06 09:47:01;;;;;;;1.10;0.50;;;22.20;61.50;;;;;;5073734;28;20111;-77
2022/07/06 09:49:27;;;;;;;2.90;0.50;;;22.10;60.90;;;;;;5070267;28;20036;-77
2022/07/06 09:51:56;;;;;;;1.60;0.40;;;22.00;61.60;;;;;;5070279;28;20454;-77
2022/07/06 09:54:22;;;;;;;1.33;0.45;;;22.00;61.40;;;;;;5074783;28;20467;-77
2022/07/06 09:56:52;;;;;;;1.23;0.40;;;22.20;61.70;;;;;;5050390;28;20029;-78
2022/07/06 09:59:23;;;;;;;0.55;0.55;;;22.30;61.30;;;;;;5068526;28;20571;-77
2022/07/06 10:01:57;;;;;;;1.38;0.50;;;22.30;59.80;;;;;;5067303;28;20509;-77
2022/07/06 10:04:23;;;;;;;1.40;0.30;;;22.20;60.80;;;;;;5068951;28;20068;-76
2022/07/06 10:06:50;;;;;;;1.23;0.60;;;22.10;62.50;;;;;;5067924;28;20078;-76
2022/07/06 10:09:17;;;;;;;1.80;0.60;;;21.90;61.60;;;;;;5066610;28;20037;-77
2022/07/06 10:11:52;;;;;;;1.88;0.75;;;22.00;61.50;;;;;;5060418;28;20036;-77
2022/07/06 10:14:21;;;;;;;1.73;0.40;;;22.00;63.00;;;;;;5054524;28;20025;-78
2022/07/06 10:16:47;;;;;;;1.50;0.95;;;22.20;60.80;;;;;;5063441;28;20471;-76
2022/07/06 10:19:13;;;;;;;5.20;0.50;;;22.10;61.70;;;;;;5050599;28;20037;-77
2022/07/06 10:21:40;;;;;;;1.55;0.38;;;22.10;60.90;;;;;;5049496;28;20033;-76
2022/07/06 10:24:07;;;;;;;3.13;0.50;;;22.00;64.00;;;;;;5049959;28;20037;-77
2022/07/06 10:26:34;;;;;;;3.20;0.50;;;22.20;62.90;;;;;;5077899;28;20047;-76
2022/07/06 10:29:00;;;;;;;6.47;0.57;;;22.50;62.40;;;;;;5077267;28;20028;-77
2022/07/06 10:31:28;;;;;;;2.55;0.47;;;22.50;59.80;;;;;;5054402;28;20028;-76
2022/07/06 10:33:55;;;;;;;0.65;0.38;;;22.50;59.30;;;;;;5075293;28;20597;-76
2022/07/06 10:36:22;;;;;;;0.93;0.30;;;22.50;61.10;;;;;;5047970;28;20381;-77
2022/07/06 10:38:52;;;;;;;4.32;0.55;;;22.70;60.00;;;;;;5051217;28;20025;-77
2022/07/06 10:41:29;;;;;;;1.02;0.43;;;23.10;60.50;;;;;;5068542;28;20394;-76
2022/07/06 10:43:56;;;;;;;1.95;0.30;;;23.30;58.20;;;;;;5063214;28;20029;-78
2022/07/06 10:46:22;;;;;;;4.07;0.40;;;23.30;57.70;;;;;;5048247;28;20025;-77
2022/07/06 10:48:48;;;;;;;5.55;0.30;;;23.10;58.20;;;;;;5061570;28;20081;-78
2022/07/06 10:51:27;;;;;;;3.22;0.50;;;23.10;57.00;;;;;;5068396;28;20044;-78
2022/07/06 10:53:58;;;;;;;0.52;0.20;;;23.10;59.20;;;;;;5053805;28;20466;-78
2022/07/06 10:56:39;;;;;;;1.70;0.40;;;23.30;58.60;;;;;;5071061;28;20467;-77
2022/07/06 10:59:15;;;;;;;1.65;0.50;;;23.40;56.60;;;;;;5060101;28;20683;-76
2022/07/06 11:02:01;;;;;;;1.52;0.30;;;23.00;57.20;;;;;;5065960;28;20028;-76
2022/07/06 11:04:31;;;;;;;4.47;0.57;;;22.60;57.40;;;;;;5032736;28;20512;-76
2022/07/06 11:07:16;;;;;;;0.95;0.32;;;22.30;58.30;;;;;;5066489;28;20044;-77
2022/07/06 11:09:54;;;;;;;1.00;0.50;;;22.60;58.50;;;;;;5071780;28;20806;-77
2022/07/06 11:12:21;;;;;;;5.03;0.30;;;22.80;57.80;;;;;;5051612;28;20399;-77
2022/07/06 11:14:48;;;;;;;1.80;0.47;;;23.00;56.20;;;;;;5051334;28;20021;-78
2022/07/06 11:17:14;;;;;;;2.03;0.40;;;23.10;57.70;;;;;;5067977;28;20052;-78
2022/07/06 11:20:08;;;;;;;2.03;0.40;;;23.10;56.30;;;;;;5071514;28;20049;-78
2022/07/06 11:22:36;;;;;;;1.30;0.65;;;23.30;57.60;;;;;;5050374;28;20481;-77
2022/07/06 11:25:03;;;;;;;1.17;0.30;;;23.60;55.30;;;;;;5050018;28;20393;-77
2022/07/06 11:27:29;;;;;;;0.95;0.28;;;23.70;55.20;;;;;;5064559;28;20532;-78
2022/07/06 11:29:55;;;;;;;1.60;0.38;;;23.90;55.10;;;;;;5066959;28;20028;-78
2022/07/06 11:32:25;;;;;;;1.27;0.30;;;24.10;54.20;;;;;;5068236;28;20032;-77
2022/07/06 11:34:51;;;;;;;1.45;0.50;;;23.90;55.20;;;;;;5062882;28;20028;-80
2022/07/06 11:37:18;;;;;;;0.75;0.28;;;23.90;56.30;;;;;;5065442;28;20165;-79
2022/07/06 11:39:45;;;;;;;7.25;0.35;;;23.90;55.30;;;;;;5068661;28;20550;-77
2022/07/06 11:42:13;;;;;;;2.92;0.30;;;24.00;56.10;;;;;;5080131;28;20037;-76
2022/07/06 11:44:39;;;;;;;3.08;0.60;;;24.10;56.70;;;;;;5065044;28;20029;-76
2022/07/06 11:47:06;;;;;;;5.10;0.60;;;24.30;53.70;;;;;;5070183;28;20020;-77
2022/07/06 11:49:34;;;;;;;1.25;0.40;;;24.50;55.30;;;;;;5071005;28;20032;-76
2022/07/06 11:52:04;;;;;;;1.85;0.30;;;24.50;54.00;;;;;;5070365;28;20029;-75
2022/07/06 11:54:32;;;;;;;1.38;0.38;;;24.30;52.70;;;;;;5070656;28;20043;-77
2022/07/06 11:56:59;;;;;;;1.75;0.40;;;24.00;53.40;;;;;;5073689;28;20029;-77
2022/07/06 11:59:30;;;;;;;1.55;0.32;;;23.80;54.00;;;;;;5078633;28;20118;-76
2022/07/06 12:02:00;;;;;;;1.30;0.47;;;23.70;55.10;;;;;;5062982;28;20327;-76
2022/07/06 12:04:26;;;;;;;0.80;0.40;;;23.80;55.10;;;;;;5053724;28;20035;-76
2022/07/06 12:06:52;;;;;;;1.65;0.30;;;23.80;54.90;;;;;;5068867;28;20024;-78
2022/07/06 12:09:17;;;;;;;2.35;0.70;;;24.10;54.40;;;;;;5070945;28;20051;-77
2022/07/06 12:11:46;;;;;;;4.20;0.95;;;24.40;54.40;;;;;;5070263;28;20024;-77
2022/07/06 12:14:19;;;;;;;1.73;0.30;;;24.60;53.00;;;;;;5066697;28;20030;-77
2022/07/06 12:16:47;;;;;;;0.73;0.38;;;24.70;52.80;;;;;;5067417;28;20090;-76
2022/07/06 12:19:14;;;;;;;3.00;0.38;;;24.80;52.10;;;;;;5045483;28;20033;-77
2022/07/06 12:21:48;;;;;;;1.88;0.30;;;24.70;52.90;;;;;;5075172;28;20032;-75
2022/07/06 12:24:18;;;;;;;1.88;0.50;;;24.60;52.30;;;;;;5069973;28;20039;-76
2022/07/06 12:26:44;;;;;;;5.53;0.40;;;24.40;53.60;;;;;;5052002;28;20045;-76
2022/07/06 12:29:13;;;;;;;1.65;0.32;;;24.40;53.10;;;;;;5070324;28;20032;-75
2022/07/06 12:31:41;;;;;;;3.38;0.65;;;24.50;53.20;;;;;;5051865;28;20112;-76
2022/07/06 12:34:15;;;;;;;1.92;0.60;;;24.40;52.90;;;;;;5060747;28;20029;-76
2022/07/06 12:36:53;;;;;;;0.32;0.22;;;24.30;53.20;;;;;;5070600;28;20028;-73
2022/07/06 12:39:24;;;;;;;1.63;0.40;;;24.30;53.80;;;;;;5069551;28;20036;-76
2022/07/06 12:41:52;;;;;;;1.58;0.30;;;24.30;54.90;;;;;;5051333;28;20044;-76
2022/07/06 12:44:22;;;;;;;1.40;0.30;;;24.60;53.20;;;;;;5065625;28;20039;-77
2022/07/06 12:46:48;;;;;;;1.48;0.38;;;24.90;52.30;;;;;;5049262;28;20063;-75
2022/07/06 12:49:22;;;;;;;1.15;0.30;;;25.20;52.00;;;;;;5049658;28;20074;-76
2022/07/06 12:52:08;;;;;;;0.82;0.20;;;25.30;52.50;;;;;;5049582;28;20030;-78